createdAt,value
2018-03-21T00:01:24.317Z,5.01
2018-03-21T00:03:52.727Z,5.03
2018-03-21T00:06:21.145Z,4.86
2018-03-21T00:08:49.609Z,4.98
2018-03-21T00:11:18.136Z,5.08
2018-03-21T00:13:46.666Z,4.90
2018-03-21T00:16:15.243Z,4.78
2018-03-21T00:18:43.759Z,4.94
2018-03-21T00:21:12.228Z,4.98
2018-03-21T00:23:40.588Z,4.96
2018-03-21T00:26:09.225Z,4.88
2018-03-21T00:28:37.741Z,4.87
2018-03-21T00:31:06.213Z,5.03
2018-03-21T00:33:35.555Z,5.09
2018-03-21T00:36:03.961Z,5.11
2018-03-21T00:38:32.400Z,5.15
2018-03-21T00:41:00.938Z,5.10
2018-03-21T00:43:29.522Z,5.13
2018-03-21T00:45:57.923Z,5.04
2018-03-21T00:48:26.614Z,5.13
2018-03-21T00:50:55.110Z,5.11
2018-03-21T00:53:23.516Z,4.99
2018-03-21T00:55:51.910Z,4.99
2018-03-21T00:58:20.277Z,5.01
2018-03-21T01:00:48.738Z,4.96
2018-03-21T01:03:17.223Z,4.93
2018-03-21T01:05:45.611Z,4.88
2018-03-21T01:08:14.049Z,4.88
2018-03-21T01:10:42.507Z,4.87
2018-03-21T01:13:10.960Z,4.88
2018-03-21T01:15:39.507Z,4.78
2018-03-21T01:18:07.998Z,4.79
2018-03-21T01:20:36.575Z,4.81
2018-03-21T01:23:05.181Z,4.75
2018-03-21T01:25:33.649Z,4.73
2018-03-21T01:28:02.097Z,4.70
2018-03-21T01:30:30.638Z,4.72
2018-03-21T01:32:59.045Z,4.69
2018-03-21T01:35:27.463Z,4.69
2018-03-21T01:37:55.854Z,4.64
2018-03-21T01:40:24.250Z,4.70
2018-03-21T01:42:52.675Z,4.68
2018-03-21T01:45:21.098Z,4.65
2018-03-21T01:47:49.503Z,4.65
2018-03-21T01:50:17.895Z,4.67
2018-03-21T01:52:46.299Z,4.70
2018-03-21T01:55:14.800Z,4.71
2018-03-21T01:57:43.192Z,4.64
2018-03-21T02:00:11.571Z,4.64
2018-03-21T02:02:40.176Z,4.55
2018-03-21T02:05:08.650Z,4.77
2018-03-21T02:07:37.089Z,4.64
2018-03-21T02:10:05.565Z,4.60
2018-03-21T02:12:34.122Z,4.55
2018-03-21T02:15:02.628Z,4.56
2018-03-21T02:17:31.347Z,4.46
2018-03-21T02:19:59.769Z,4.49
2018-03-21T02:22:28.163Z,4.53
2018-03-21T02:24:56.578Z,4.50
2018-03-21T02:27:24.985Z,4.41
2018-03-21T02:29:53.392Z,4.44
2018-03-21T02:32:21.895Z,4.43
2018-03-21T02:34:50.452Z,4.40
2018-03-21T02:37:18.895Z,4.34
2018-03-21T02:39:47.330Z,4.27
2018-03-21T02:42:15.718Z,4.24
2018-03-21T02:44:44.344Z,4.10
2018-03-21T02:47:12.868Z,4.16
2018-03-21T02:49:41.313Z,4.23
2018-03-21T02:52:09.796Z,4.09
2018-03-21T02:54:38.182Z,4.07
2018-03-21T02:57:06.601Z,4.10
2018-03-21T02:59:35.055Z,4.09
2018-03-21T03:02:03.489Z,4.05
2018-03-21T03:04:31.866Z,4.01
2018-03-21T03:07:00.381Z,3.96
2018-03-21T03:09:28.782Z,3.99
2018-03-21T03:11:57.185Z,3.94
2018-03-21T03:14:25.610Z,3.91
2018-03-21T03:16:54.047Z,3.90
2018-03-21T03:19:22.574Z,3.83
2018-03-21T03:21:51.043Z,3.87
2018-03-21T03:24:19.537Z,3.87
2018-03-21T03:26:47.962Z,3.87
2018-03-21T03:29:16.352Z,3.86
2018-03-21T03:31:44.888Z,3.86
2018-03-21T03:34:13.295Z,3.88
2018-03-21T03:36:41.724Z,3.71
2018-03-21T03:39:10.184Z,3.66
2018-03-21T03:41:38.934Z,3.75
2018-03-21T03:44:07.453Z,3.70
2018-03-21T03:46:35.900Z,3.78
2018-03-21T03:49:05.028Z,3.75
2018-03-21T03:51:33.661Z,3.70
2018-03-21T03:54:02.135Z,3.76
2018-03-21T03:56:30.700Z,3.67
2018-03-21T03:58:59.403Z,3.69
2018-03-21T04:01:28.110Z,3.65
2018-03-21T04:03:56.675Z,3.65
2018-03-21T04:06:25.343Z,3.61
2018-03-21T04:08:53.911Z,3.68
2018-03-21T04:11:22.512Z,3.67
2018-03-21T04:13:51.066Z,3.63
2018-03-21T04:16:19.692Z,3.67
2018-03-21T04:18:48.693Z,3.61
2018-03-21T04:21:17.665Z,3.58
2018-03-21T04:23:46.841Z,3.55
2018-03-21T04:26:15.297Z,3.64
2018-03-21T04:28:44.294Z,3.48
2018-03-21T04:31:13.014Z,3.66
2018-03-21T04:33:41.471Z,3.62
2018-03-21T04:36:10.204Z,3.51
2018-03-21T04:38:39.099Z,3.63
2018-03-21T04:41:07.741Z,3.59
2018-03-21T04:43:36.432Z,3.44
2018-03-21T04:46:05.274Z,3.54
2018-03-21T04:48:33.776Z,3.47
2018-03-21T04:51:02.473Z,3.48
2018-03-21T04:53:31.237Z,3.49
2018-03-21T04:56:00.468Z,3.52
2018-03-21T04:58:29.310Z,3.49
2018-03-21T05:00:57.763Z,3.53
2018-03-21T05:03:26.262Z,3.44
2018-03-21T05:05:57.221Z,3.39
2018-03-21T05:08:25.913Z,3.47
2018-03-21T05:10:54.495Z,3.51
2018-03-21T05:13:23.061Z,3.42
2018-03-21T05:15:51.641Z,3.45
2018-03-21T05:18:20.102Z,3.63
